sensor_id;sensor_type;location;lat;lon;timestamp;pressure;altitude;pressure_sealevel;temperature;humidity
35151;BME280;55720;51.972;4.624;2023-04-15T00:00:35;100790.19;;;7.63;100.00
35151;BME280;55720;51.972;4.624;2023-04-15T00:03:01;100805.44;;;7.56;100.00
35151;BME280;55720;51.972;4.624;2023-04-15T00:05:29;100801.75;;;7.60;100.00
35151;BME280;55720;51.972;4.624;2023-04-15T00:07:55;100799.59;;;7.49;100.00
35151;BME280;55720;51.972;4.624;2023-04-15T00:10:20;100795.56;;;7.46;100.00
35151;BME280;55720;51.972;4.624;2023-04-15T00:12:46;100799.09;;;7.47;100.00
35151;BME280;55720;51.972;4.624;2023-04-15T00:15:11;100798.50;;;7.27;100.00
35151;BME280;55720;51.972;4.624;2023-04-15T00:17:37;100802.94;;;7.46;100.00
35151;BME280;55720;51.972;4.624;2023-04-15T00:20:04;100802.53;;;7.52;100.00
35151;BME280;55720;51.972;4.624;2023-04-15T00:22:30;100813.31;;;7.57;100.00
35151;BME280;55720;51.972;4.624;2023-04-15T00:24:56;100817.56;;;7.41;100.00
35151;BME280;55720;51.972;4.624;2023-04-15T00:27:22;100810.91;;;7.33;100.00
35151;BME280;55720;51.972;4.624;2023-04-15T00:29:47;100815.59;;;7.41;100.00
35151;BME280;55720;51.972;4.624;2023-04-15T00:32:13;100823.19;;;7.45;100.00
35151;BME280;55720;51.972;4.624;2023-04-15T00:34:38;100821.50;;;7.35;100.00
35151;BME280;55720;51.972;4.624;2023-04-15T00:37:04;100826.31;;;7.29;100.00
35151;BME280;55720;51.972;4.624;2023-04-15T00:39:29;100824.22;;;7.26;100.00
35151;BME280;55720;51.972;4.624;2023-04-15T00:41:55;100831.31;;;7.14;100.00
35151;BME280;55720;51.972;4.624;2023-04-15T00:44:21;100824.31;;;7.21;100.00
35151;BME280;55720;51.972;4.624;2023-04-15T00:46:49;100823.47;;;7.12;100.00
35151;BME280;55720;51.972;4.624;2023-04-15T00:49:15;100825.38;;;7.12;100.00
35151;BME280;55720;51.972;4.624;2023-04-15T00:51:42;100817.03;;;6.94;100.00
35151;BME280;55720;51.972;4.624;2023-04-15T00:54:09;100816.25;;;6.80;100.00
35151;BME280;55720;51.972;4.624;2023-04-15T00:56:36;100812.75;;;6.80;100.00
35151;BME280;55720;51.972;4.624;2023-04-15T00:59:02;100811.56;;;6.72;100.00
35151;BME280;55720;51.972;4.624;2023-04-15T01:01:28;100803.25;;;6.77;100.00
35151;BME280;55720;51.972;4.624;2023-04-15T01:03:56;100803.28;;;6.64;100.00
35151;BME280;55720;51.972;4.624;2023-04-15T01:06:22;100794.91;;;6.60;100.00
35151;BME280;55720;51.972;4.624;2023-04-15T01:08:48;100800.38;;;6.60;100.00
35151;BME280;55720;51.972;4.624;2023-04-15T01:11:14;100797.91;;;6.72;100.00
35151;BME280;55720;51.972;4.624;2023-04-15T01:13:39;100803.38;;;6.72;100.00
35151;BME280;55720;51.972;4.624;2023-04-15T01:16:06;100813.09;;;6.65;100.00
35151;BME280;55720;51.972;4.624;2023-04-15T01:18:33;100802.66;;;6.67;100.00
35151;BME280;55720;51.972;4.624;2023-04-15T01:21:00;100810.22;;;6.83;100.00
35151;BME280;55720;51.972;4.624;2023-04-15T01:23:26;100816.31;;;6.67;100.00
35151;BME280;55720;51.972;4.624;2023-04-15T01:25:52;100813.97;;;6.74;100.00
35151;BME280;55720;51.972;4.624;2023-04-15T01:28:17;100819.41;;;6.74;100.00
35151;BME280;55720;51.972;4.624;2023-04-15T01:30:43;100818.78;;;6.55;100.00
35151;BME280;55720;51.972;4.624;2023-04-15T01:33:09;100813.50;;;6.44;100.00
35151;BME280;55720;51.972;4.624;2023-04-15T01:35:34;100812.81;;;6.53;100.00
35151;BME280;55720;51.972;4.624;2023-04-15T01:38:05;100808.38;;;6.43;100.00
35151;BME280;55720;51.972;4.624;2023-04-15T01:40:32;100801.59;;;6.40;100.00
35151;BME280;55720;51.972;4.624;2023-04-15T01:42:58;100805.94;;;6.41;100.00
35151;BME280;55720;51.972;4.624;2023-04-15T01:45:23;100805.66;;;6.29;100.00
35151;BME280;55720;51.972;4.624;2023-04-15T01:47:49;100796.16;;;6.27;100.00
35151;BME280;55720;51.972;4.624;2023-04-15T01:50:14;100800.09;;;6.34;100.00
35151;BME280;55720;51.972;4.624;2023-04-15T01:52:40;100798.78;;;6.46;100.00
35151;BME280;55720;51.972;4.624;2023-04-15T01:55:06;100802.72;;;6.26;100.00
35151;BME280;55720;51.972;4.624;2023-04-15T01:57:32;100794.88;;;6.24;100.00
35151;BME280;55720;51.972;4.624;2023-04-15T01:59:58;100799.00;;;6.08;100.00
35151;BME280;55720;51.972;4.624;2023-04-15T02:02:23;100776.63;;;6.11;100.00
35151;BME280;55720;51.972;4.624;2023-04-15T02:04:49;100775.91;;;6.06;100.00
35151;BME280;55720;51.972;4.624;2023-04-15T02:07:14;100780.75;;;5.95;100.00
35151;BME280;55720;51.972;4.624;2023-04-15T02:09:40;100765.81;;;6.06;100.00
35151;BME280;55720;51.972;4.624;2023-04-15T02:12:05;100762.19;;;6.11;100.00
35151;BME280;55720;51.972;4.624;2023-04-15T02:14:31;100766.50;;;6.12;100.00
35151;BME280;55720;51.972;4.624;2023-04-15T02:16:56;100765.50;;;6.08;100.00
35151;BME280;55720;51.972;4.624;2023-04-15T02:19:21;100760.75;;;6.13;100.00
35151;BME280;55720;51.972;4.624;2023-04-15T02:21:47;100763.69;;;6.17;100.00
35151;BME280;55720;51.972;4.624;2023-04-15T02:24:12;100767.41;;;6.21;100.00
35151;BME280;55720;51.972;4.624;2023-04-15T02:26:38;100763.69;;;6.17;100.00
35151;BME280;55720;51.972;4.624;2023-04-15T02:29:03;100775.47;;;6.12;100.00
35151;BME280;55720;51.972;4.624;2023-04-15T02:31:29;100761.03;;;6.12;100.00
35151;BME280;55720;51.972;4.624;2023-04-15T02:33:54;100762.28;;;6.06;100.00
35151;BME280;55720;51.972;4.624;2023-04-15T02:36:19;100779.84;;;6.00;100.00
35151;BME280;55720;51.972;4.624;2023-04-15T02:38:45;100781.25;;;6.11;100.00
35151;BME280;55720;51.972;4.624;2023-04-15T02:41:11;100780.53;;;6.19;100.00
35151;BME280;55720;51.972;4.624;2023-04-15T02:43:36;100790.94;;;6.17;100.00
35151;BME280;55720;51.972;4.624;2023-04-15T02:46:04;100790.53;;;6.23;100.00
35151;BME280;55720;51.972;4.624;2023-04-15T02:48:29;100802.84;;;6.21;100.00
35151;BME280;55720;51.972;4.624;2023-04-15T02:51:10;100810.31;;;6.15;100.00
35151;BME280;55720;51.972;4.624;2023-04-15T02:53:35;100811.03;;;6.21;100.00
35151;BME280;55720;51.972;4.624;2023-04-15T02:56:01;100811.09;;;6.29;100.00
35151;BME280;55720;51.972;4.624;2023-04-15T02:58:26;100827.06;;;6.22;100.00
35151;BME280;55720;51.972;4.624;2023-04-15T03:00:51;100817.50;;;6.25;100.00
35151;BME280;55720;51.972;4.624;2023-04-15T03:03:17;100823.25;;;6.10;100.00
35151;BME280;55720;51.972;4.624;2023-04-15T03:05:43;100829.41;;;6.02;100.00
35151;BME280;55720;51.972;4.624;2023-04-15T03:08:08;100824.06;;;6.10;100.00
35151;BME280;55720;51.972;4.624;2023-04-15T03:10:34;100833.13;;;6.19;100.00
35151;BME280;55720;51.972;4.624;2023-04-15T03:12:59;100835.03;;;6.19;100.00
35151;BME280;55720;51.972;4.624;2023-04-15T03:15:25;100835.66;;;6.43;100.00
35151;BME280;55720;51.972;4.624;2023-04-15T03:17:51;100844.94;;;6.42;100.00
35151;BME280;55720;51.972;4.624;2023-04-15T03:20:16;100845.63;;;6.48;100.00
35151;BME280;55720;51.972;4.624;2023-04-15T03:22:42;100855.56;;;6.43;100.00
35151;BME280;55720;51.972;4.624;2023-04-15T03:25:07;100854.75;;;6.43;100.00
35151;BME280;55720;51.972;4.624;2023-04-15T03:27:33;100868.06;;;6.44;100.00
35151;BME280;55720;51.972;4.624;2023-04-15T03:29:58;100881.22;;;6.42;100.00
35151;BME280;55720;51.972;4.624;2023-04-15T03:32:23;100885.34;;;6.54;100.00
35151;BME280;55720;51.972;4.624;2023-04-15T03:34:49;100884.44;;;6.44;100.00
35151;BME280;55720;51.972;4.624;2023-04-15T03:37:14;100892.63;;;6.31;100.00
35151;BME280;55720;51.972;4.624;2023-04-15T03:39:40;100888.66;;;6.10;100.00
35151;BME280;55720;51.972;4.624;2023-04-15T03:42:05;100899.56;;;5.96;100.00
35151;BME280;55720;51.972;4.624;2023-04-15T03:44:31;100884.91;;;5.92;100.00
35151;BME280;55720;51.972;4.624;2023-04-15T03:46:56;100879.69;;;5.77;100.00
35151;BME280;55720;51.972;4.624;2023-04-15T03:49:22;100880.91;;;5.71;100.00
35151;BME280;55720;51.972;4.624;2023-04-15T03:51:48;100865.19;;;5.81;100.00
35151;BME280;55720;51.972;4.624;2023-04-15T03:54:14;100872.63;;;5.76;100.00
35151;BME280;55720;51.972;4.624;2023-04-15T03:56:39;100863.19;;;5.87;100.00
35151;BME280;55720;51.972;4.624;2023-04-15T03:59:04;100867.91;;;5.81;100.00
35151;BME280;55720;51.972;4.624;2023-04-15T04:01:30;100861.72;;;5.76;100.00
35151;BME280;55720;51.972;4.624;2023-04-15T04:03:55;100860.28;;;5.65;100.00
35151;BME280;55720;51.972;4.624;2023-04-15T04:06:20;100850.31;;;5.60;100.00
35151;BME280;55720;51.972;4.624;2023-04-15T04:08:46;100844.66;;;5.57;100.00
35151;BME280;55720;51.972;4.624;2023-04-15T04:11:11;100839.97;;;5.57;100.00
35151;BME280;55720;51.972;4.624;2023-04-15T04:13:37;100839.78;;;5.54;100.00
35151;BME280;55720;51.972;4.624;2023-04-15T04:16:02;100838.84;;;5.44;100.00
35151;BME280;55720;51.972;4.624;2023-04-15T04:18:31;100835.88;;;5.27;100.00
35151;BME280;55720;51.972;4.624;2023-04-15T04:20:57;100818.16;;;5.11;100.00
35151;BME280;55720;51.972;4.624;2023-04-15T04:23:22;100809.50;;;4.90;100.00
35151;BME280;55720;51.972;4.624;2023-04-15T04:25:48;100787.97;;;4.75;100.00
35151;BME280;55720;51.972;4.624;2023-04-15T04:28:13;100777.97;;;4.71;100.00
35151;BME280;55720;51.972;4.624;2023-04-15T04:30:39;100769.53;;;4.54;100.00
35151;BME280;55720;51.972;4.624;2023-04-15T04:33:05;100755.34;;;4.38;100.00
35151;BME280;55720;51.972;4.624;2023-04-15T04:35:30;100731.34;;;4.26;100.00
35151;BME280;55720;51.972;4.624;2023-04-15T04:37:59;100701.66;;;4.11;100.00
35151;BME280;55720;51.972;4.624;2023-04-15T04:40:25;100672.13;;;4.05;100.00
35151;BME280;55720;51.972;4.624;2023-04-15T04:42:50;100640.03;;;4.07;100.00
35151;BME280;55720;51.972;4.624;2023-04-15T04:45:15;100629.38;;;3.91;100.00
35151;BME280;55720;51.972;4.624;2023-04-15T04:47:41;100601.28;;;3.82;100.00
35151;BME280;55720;51.972;4.624;2023-04-15T04:50:06;100576.09;;;3.77;100.00
35151;BME280;55720;51.972;4.624;2023-04-15T04:52:33;100557.44;;;3.70;100.00
35151;BME280;55720;51.972;4.624;2023-04-15T04:54:58;100530.00;;;3.72;100.00
35151;BME280;55720;51.972;4.624;2023-04-15T04:57:24;100500.66;;;3.74;100.00
35151;BME280;55720;51.972;4.624;2023-04-15T04:59:49;100475.59;;;3.95;100.00
35151;BME280;55720;51.972;4.624;2023-04-15T05:02:15;100451.06;;;4.01;100.00
35151;BME280;55720;51.972;4.624;2023-04-15T05:04:40;100455.47;;;3.96;100.00
35151;BME280;55720;51.972;4.624;2023-04-15T05:07:05;100439.97;;;3.97;100.00
35151;BME280;55720;51.972;4.624;2023-04-15T05:09:31;100435.03;;;3.99;100.00
35151;BME280;55720;51.972;4.624;2023-04-15T05:11:57;100426.41;;;3.97;100.00
35151;BME280;55720;51.972;4.624;2023-04-15T05:14:22;100427.84;;;4.22;100.00
35151;BME280;55720;51.972;4.624;2023-04-15T05:16:47;100419.91;;;4.25;100.00
35151;BME280;55720;51.972;4.624;2023-04-15T05:19:13;100425.84;;;4.27;100.00
35151;BME280;55720;51.972;4.624;2023-04-15T05:21:38;100429.34;;;4.28;100.00
35151;BME280;55720;51.972;4.624;2023-04-15T05:24:04;100430.16;;;4.28;100.00
35151;BME280;55720;51.972;4.624;2023-04-15T05:26:29;100443.88;;;4.37;100.00
35151;BME280;55720;51.972;4.624;2023-04-15T05:28:55;100449.41;;;4.45;100.00
35151;BME280;55720;51.972;4.624;2023-04-15T05:31:20;100444.28;;;4.58;100.00
35151;BME280;55720;51.972;4.624;2023-04-15T05:33:46;100442.88;;;4.74;100.00
35151;BME280;55720;51.972;4.624;2023-04-15T05:36:11;100441.44;;;4.90;100.00
35151;BME280;55720;51.972;4.624;2023-04-15T05:38:37;100438.91;;;5.07;100.00
35151;BME280;55720;51.972;4.624;2023-04-15T05:41:02;100445.81;;;5.27;100.00
35151;BME280;55720;51.972;4.624;2023-04-15T05:43:28;100447.81;;;5.57;100.00
35151;BME280;55720;51.972;4.624;2023-04-15T05:45:54;100381.81;;;6.05;100.00
35151;BME280;55720;51.972;4.624;2023-04-15T05:48:20;100382.75;;;6.96;100.00
35151;BME280;55720;51.972;4.624;2023-04-15T05:50:46;100407.78;;;7.84;100.00
35151;BME280;55720;51.972;4.624;2023-04-15T05:53:11;100455.94;;;8.78;100.00
35151;BME280;55720;51.972;4.624;2023-04-15T05:55:36;100556.03;;;8.50;100.00
35151;BME280;55720;51.972;4.624;2023-04-15T05:58:02;100642.41;;;8.08;100.00
35151;BME280;55720;51.972;4.624;2023-04-15T06:00:27;100747.16;;;7.69;100.00
35151;BME280;55720;51.972;4.624;2023-04-15T06:02:53;100822.88;;;7.46;100.00
35151;BME280;55720;51.972;4.624;2023-04-15T06:05:20;100872.94;;;7.33;100.00
35151;BME280;55720;51.972;4.624;2023-04-15T06:07:45;100913.94;;;7.19;100.00
35151;BME280;55720;51.972;4.624;2023-04-15T06:10:10;100935.97;;;7.23;100.00
35151;BME280;55720;51.972;4.624;2023-04-15T06:12:36;100953.22;;;7.90;100.00
35151;BME280;55720;51.972;4.624;2023-04-15T06:15:01;100994.28;;;7.99;100.00
35151;BME280;55720;51.972;4.624;2023-04-15T06:17:28;101024.56;;;8.02;100.00
35151;BME280;55720;51.972;4.624;2023-04-15T06:19:53;101050.72;;;8.17;100.00
35151;BME280;55720;51.972;4.624;2023-04-15T06:22:23;101085.44;;;8.30;100.00
35151;BME280;55720;51.972;4.624;2023-04-15T06:24:52;101122.19;;;8.37;100.00
35151;BME280;55720;51.972;4.624;2023-04-15T06:27:17;101136.06;;;8.63;100.00
35151;BME280;55720;51.972;4.624;2023-04-15T06:29:43;101161.84;;;8.93;100.00
35151;BME280;55720;51.972;4.624;2023-04-15T06:32:09;101189.59;;;9.31;100.00
35151;BME280;55720;51.972;4.624;2023-04-15T06:34:35;101210.22;;;9.68;100.00
35151;BME280;55720;51.972;4.624;2023-04-15T06:37:00;101243.69;;;9.87;100.00
35151;BME280;55720;51.972;4.624;2023-04-15T06:39:26;101264.69;;;10.57;100.00
35151;BME280;55720;51.972;4.624;2023-04-15T06:41:51;101283.78;;;11.77;100.00
35151;BME280;55720;51.972;4.624;2023-04-15T06:44:17;101314.03;;;14.05;100.00
35151;BME280;55720;51.972;4.624;2023-04-15T06:46:43;101318.81;;;16.23;100.00
35151;BME280;55720;51.972;4.624;2023-04-15T06:49:09;101320.75;;;18.34;100.00
35151;BME280;55720;51.972;4.624;2023-04-15T06:51:34;101294.06;;;19.45;100.00
35151;BME280;55720;51.972;4.624;2023-04-15T06:54:00;101267.03;;;20.44;100.00
35151;BME280;55720;51.972;4.624;2023-04-15T06:56:26;101274.16;;;20.34;100.00
35151;BME280;55720;51.972;4.624;2023-04-15T06:58:52;101249.75;;;20.89;100.00
35151;BME280;55720;51.972;4.624;2023-04-15T07:01:17;101248.66;;;21.12;100.00
35151;BME280;55720;51.972;4.624;2023-04-15T07:03:43;101250.31;;;21.23;100.00
35151;BME280;55720;51.972;4.624;2023-04-15T07:06:08;101241.56;;;21.46;100.00
35151;BME280;55720;51.972;4.624;2023-04-15T07:08:34;101255.91;;;21.34;100.00
35151;BME280;55720;51.972;4.624;2023-04-15T07:11:00;101265.81;;;21.14;100.00
35151;BME280;55720;51.972;4.624;2023-04-15T07:13:25;101268.81;;;20.19;100.00
35151;BME280;55720;51.972;4.624;2023-04-15T07:15:51;101282.34;;;19.69;100.00
35151;BME280;55720;51.972;4.624;2023-04-15T07:18:16;101278.38;;;20.14;100.00
35151;BME280;55720;51.972;4.624;2023-04-15T07:20:42;101296.78;;;19.41;100.00
35151;BME280;55720;51.972;4.624;2023-04-15T07:23:07;101325.56;;;17.49;100.00
35151;BME280;55720;51.972;4.624;2023-04-15T07:25:33;101328.59;;;18.05;100.00
35151;BME280;55720;51.972;4.624;2023-04-15T07:27:58;101325.84;;;18.32;100.00
35151;BME280;55720;51.972;4.624;2023-04-15T07:30:23;101326.06;;;18.68;100.00
35151;BME280;55720;51.972;4.624;2023-04-15T07:32:49;101337.44;;;18.11;100.00
35151;BME280;55720;51.972;4.624;2023-04-15T07:35:14;101342.44;;;17.79;100.00
35151;BME280;55720;51.972;4.624;2023-04-15T07:37:40;101368.38;;;16.75;100.00
35151;BME280;55720;51.972;4.624;2023-04-15T07:40:07;101375.78;;;16.87;100.00
35151;BME280;55720;51.972;4.624;2023-04-15T07:42:33;101375.19;;;17.32;100.00
35151;BME280;55720;51.972;4.624;2023-04-15T07:44:59;101398.25;;;16.03;100.00
35151;BME280;55720;51.972;4.624;2023-04-15T07:47:24;101408.03;;;15.30;100.00
35151;BME280;55720;51.972;4.624;2023-04-15T07:49:51;101429.66;;;14.06;100.00
35151;BME280;55720;51.972;4.624;2023-04-15T07:52:17;101437.88;;;14.27;100.00
35151;BME280;55720;51.972;4.624;2023-04-15T07:54:42;101458.34;;;14.14;100.00
35151;BME280;55720;51.972;4.624;2023-04-15T07:57:07;101451.28;;;14.61;100.00
35151;BME280;55720;51.972;4.624;2023-04-15T07:59:33;101444.00;;;15.69;100.00
35151;BME280;55720;51.972;4.624;2023-04-15T08:01:58;101427.94;;;16.50;100.00
35151;BME280;55720;51.972;4.624;2023-04-15T08:04:24;101445.19;;;14.80;100.00
35151;BME280;55720;51.972;4.624;2023-04-15T08:06:49;101447.69;;;16.33;100.00
35151;BME280;55720;51.972;4.624;2023-04-15T08:09:15;101449.38;;;16.21;100.00
35151;BME280;55720;51.972;4.624;2023-04-15T08:11:40;101447.56;;;15.98;100.00
35151;BME280;55720;51.972;4.624;2023-04-15T08:14:06;101453.53;;;15.32;100.00
35151;BME280;55720;51.972;4.624;2023-04-15T08:16:32;101455.66;;;16.34;100.00
35151;BME280;55720;51.972;4.624;2023-04-15T08:18:57;101457.44;;;16.27;100.00
35151;BME280;55720;51.972;4.624;2023-04-15T08:21:23;101446.91;;;18.06;100.00
35151;BME280;55720;51.972;4.624;2023-04-15T08:23:51;101433.69;;;19.17;100.00
35151;BME280;55720;51.972;4.624;2023-04-15T08:26:17;101428.28;;;18.30;100.00
35151;BME280;55720;51.972;4.624;2023-04-15T08:28:44;101425.41;;;18.94;100.00
35151;BME280;55720;51.972;4.624;2023-04-15T08:31:11;101434.00;;;18.86;100.00
35151;BME280;55720;51.972;4.624;2023-04-15T08:33:37;101440.19;;;19.28;100.00
35151;BME280;55720;51.972;4.624;2023-04-15T08:36:02;101439.38;;;18.98;100.00
35151;BME280;55720;51.972;4.624;2023-04-15T08:38:28;101435.88;;;19.31;100.00
35151;BME280;55720;51.972;4.624;2023-04-15T08:40:54;101466.56;;;17.75;100.00
35151;BME280;55720;51.972;4.624;2023-04-15T08:43:27;101490.38;;;17.06;100.00
35151;BME280;55720;51.972;4.624;2023-04-15T08:45:54;101515.66;;;15.35;100.00
35151;BME280;55720;51.972;4.624;2023-04-15T08:48:20;101526.03;;;15.38;100.00
35151;BME280;55720;51.972;4.624;2023-04-15T08:50:49;101519.28;;;16.90;100.00
35151;BME280;55720;51.972;4.624;2023-04-15T08:53:15;101499.94;;;17.79;100.00
35151;BME280;55720;51.972;4.624;2023-04-15T08:55:45;101503.91;;;16.92;100.00
35151;BME280;55720;51.972;4.624;2023-04-15T08:58:12;101512.50;;;16.87;100.00
35151;BME280;55720;51.972;4.624;2023-04-15T09:00:39;101509.09;;;16.62;100.00
35151;BME280;55720;51.972;4.624;2023-04-15T09:03:05;101514.13;;;17.39;100.00
35151;BME280;55720;51.972;4.624;2023-04-15T09:05:34;101493.78;;;18.50;100.00
35151;BME280;55720;51.972;4.624;2023-04-15T09:08:00;101497.66;;;18.45;100.00
35151;BME280;55720;51.972;4.624;2023-04-15T09:10:26;101498.03;;;18.02;100.00
35151;BME280;55720;51.972;4.624;2023-04-15T09:12:52;101506.94;;;17.03;100.00
35151;BME280;55720;51.972;4.624;2023-04-15T09:15:17;101519.38;;;16.62;100.00
35151;BME280;55720;51.972;4.624;2023-04-15T09:17:43;101514.72;;;17.13;100.00
35151;BME280;55720;51.972;4.624;2023-04-15T09:20:11;101525.38;;;16.80;100.00
35151;BME280;55720;51.972;4.624;2023-04-15T09:22:38;101530.50;;;16.78;100.00
35151;BME280;55720;51.972;4.624;2023-04-15T09:25:24;101534.50;;;15.81;100.00
35151;BME280;55720;51.972;4.624;2023-04-15T09:27:52;101541.19;;;16.20;100.00
35151;BME280;55720;51.972;4.624;2023-04-15T09:30:18;101553.38;;;16.75;100.00
35151;BME280;55720;51.972;4.624;2023-04-15T09:33:03;101546.44;;;16.09;100.00
35151;BME280;55720;51.972;4.624;2023-04-15T09:35:33;101566.94;;;14.84;100.00
35151;BME280;55720;51.972;4.624;2023-04-15T09:38:04;101594.63;;;15.20;100.00
35151;BME280;55720;51.972;4.624;2023-04-15T09:40:35;101581.50;;;14.93;100.00
35151;BME280;55720;51.972;4.624;2023-04-15T09:43:02;101596.97;;;14.61;100.00
35151;BME280;55720;51.972;4.624;2023-04-15T09:45:28;101599.88;;;14.64;100.00
35151;BME280;55720;51.972;4.624;2023-04-15T09:47:53;101593.41;;;14.60;100.00
35151;BME280;55720;51.972;4.624;2023-04-15T09:50:19;101602.88;;;14.18;100.00
35151;BME280;55720;51.972;4.624;2023-04-15T09:52:46;101618.97;;;14.37;100.00
35151;BME280;55720;51.972;4.624;2023-04-15T09:55:12;101613.72;;;13.82;100.00
35151;BME280;55720;51.972;4.624;2023-04-15T09:57:39;101624.00;;;13.43;100.00
35151;BME280;55720;51.972;4.624;2023-04-15T10:00:09;101628.72;;;13.43;100.00
35151;BME280;55720;51.972;4.624;2023-04-15T10:02:36;101624.53;;;13.66;100.00
35151;BME280;55720;51.972;4.624;2023-04-15T10:05:02;101625.34;;;13.66;100.00
35151;BME280;55720;51.972;4.624;2023-04-15T10:07:28;101620.44;;;13.72;100.00
35151;BME280;55720;51.972;4.624;2023-04-15T10:09:53;101622.06;;;13.73;100.00
35151;BME280;55720;51.972;4.624;2023-04-15T10:12:19;101617.59;;;13.30;100.00
35151;BME280;55720;51.972;4.624;2023-04-15T10:14:58;101630.13;;;13.19;100.00
35151;BME280;55720;51.972;4.624;2023-04-15T10:17:26;101643.72;;;12.69;100.00
35151;BME280;55720;51.972;4.624;2023-04-15T10:19:53;101660.47;;;13.02;100.00
35151;BME280;55720;51.972;4.624;2023-04-15T10:22:21;101647.13;;;13.30;100.00
35151;BME280;55720;51.972;4.624;2023-04-15T10:24:47;101644.00;;;13.90;100.00
35151;BME280;55720;51.972;4.624;2023-04-15T10:27:14;101653.94;;;13.62;100.00
35151;BME280;55720;51.972;4.624;2023-04-15T10:29:40;101651.84;;;13.59;100.00
35151;BME280;55720;51.972;4.624;2023-04-15T10:32:06;101664.44;;;13.39;100.00
35151;BME280;55720;51.972;4.624;2023-04-15T10:34:32;101659.59;;;13.65;100.00
35151;BME280;55720;51.972;4.624;2023-04-15T10:37:01;101667.25;;;13.89;100.00
35151;BME280;55720;51.972;4.624;2023-04-15T10:39:37;101669.34;;;13.92;100.00
35151;BME280;55720;51.972;4.624;2023-04-15T10:42:17;101677.28;;;13.64;100.00
35151;BME280;55720;51.972;4.624;2023-04-15T10:44:51;101678.28;;;13.30;100.00
35151;BME280;55720;51.972;4.624;2023-04-15T10:47:20;101675.47;;;13.39;100.00
35151;BME280;55720;51.972;4.624;2023-04-15T10:49:56;101679.81;;;13.49;100.00
35151;BME280;55720;51.972;4.624;2023-04-15T10:52:23;101683.56;;;13.44;100.00
35151;BME280;55720;51.972;4.624;2023-04-15T10:55:01;101687.47;;;14.02;100.00
35151;BME280;55720;51.972;4.624;2023-04-15T10:57:34;101684.44;;;13.95;100.00
35151;BME280;55720;51.972;4.624;2023-04-15T11:00:09;101691.31;;;14.09;100.00
35151;BME280;55720;51.972;4.624;2023-04-15T11:02:56;101697.66;;;14.10;100.00
35151;BME280;55720;51.972;4.624;2023-04-15T11:05:48;101700.69;;;13.96;100.00
35151;BME280;55720;51.972;4.624;2023-04-15T11:08:14;101691.06;;;14.44;100.00
35151;BME280;55720;51.972;4.624;2023-04-15T11:15:38;101698.44;;;14.60;100.00
35151;BME280;55720;51.972;4.624;2023-04-15T11:18:17;101713.19;;;14.64;100.00
35151;BME280;55720;51.972;4.624;2023-04-15T11:20:45;101694.34;;;14.78;100.00
35151;BME280;55720;51.972;4.624;2023-04-15T11:23:14;101712.25;;;14.60;100.00
35151;BME280;55720;51.972;4.624;2023-04-15T11:25:40;101715.31;;;14.79;100.00
35151;BME280;55720;51.972;4.624;2023-04-15T11:28:05;101716.53;;;14.70;100.00
35151;BME280;55720;51.972;4.624;2023-04-15T11:30:36;101715.88;;;14.52;100.00
35151;BME280;55720;51.972;4.624;2023-04-15T11:33:03;101723.06;;;14.24;100.00
35151;BME280;55720;51.972;4.624;2023-04-15T11:35:29;101736.72;;;14.70;100.00
35151;BME280;55720;51.972;4.624;2023-04-15T11:37:55;101728.34;;;14.79;100.00
35151;BME280;55720;51.972;4.624;2023-04-15T11:40:28;101722.81;;;14.79;100.00
35151;BME280;55720;51.972;4.624;2023-04-15T11:43:23;101734.19;;;14.36;100.00
35151;BME280;55720;51.972;4.624;2023-04-15T11:45:52;101734.44;;;13.93;100.00
35151;BME280;55720;51.972;4.624;2023-04-15T11:48:20;101744.09;;;13.78;100.00
35151;BME280;55720;51.972;4.624;2023-04-15T11:50:55;101746.97;;;13.91;100.00
35151;BME280;55720;51.972;4.624;2023-04-15T11:53:21;101752.34;;;13.87;100.00
35151;BME280;55720;51.972;4.624;2023-04-15T11:55:49;101743.06;;;14.21;100.00
35151;BME280;55720;51.972;4.624;2023-04-15T11:58:24;101740.72;;;14.32;100.00
35151;BME280;55720;51.972;4.624;2023-04-15T12:00:54;101756.66;;;14.26;100.00
35151;BME280;55720;51.972;4.624;2023-04-15T12:03:40;101752.19;;;13.92;100.00
35151;BME280;55720;51.972;4.624;2023-04-15T12:13:53;101753.16;;;13.88;100.00
35151;BME280;55720;51.972;4.624;2023-04-15T12:16:19;101758.41;;;14.39;100.00
35151;BME280;55720;51.972;4.624;2023-04-15T12:18:45;101744.34;;;14.53;100.00
35151;BME280;55720;51.972;4.624;2023-04-15T12:21:12;101754.72;;;14.35;100.00
35151;BME280;55720;51.972;4.624;2023-04-15T12:23:38;101753.63;;;14.69;100.00
35151;BME280;55720;51.972;4.624;2023-04-15T12:26:04;101748.59;;;15.04;100.00
35151;BME280;55720;51.972;4.624;2023-04-15T12:28:31;101749.78;;;14.61;100.00
35151;BME280;55720;51.972;4.624;2023-04-15T12:30:56;101751.09;;;14.43;100.00
35151;BME280;55720;51.972;4.624;2023-04-15T12:33:22;101773.22;;;14.35;100.00
35151;BME280;55720;51.972;4.624;2023-04-15T12:35:47;101770.88;;;14.16;100.00
35151;BME280;55720;51.972;4.624;2023-04-15T12:38:12;101764.69;;;14.69;100.00
35151;BME280;55720;51.972;4.624;2023-04-15T12:40:38;101758.03;;;15.03;100.00
35151;BME280;55720;51.972;4.624;2023-04-15T12:43:03;101757.31;;;14.94;100.00
35151;BME280;55720;51.972;4.624;2023-04-15T12:45:28;101764.13;;;14.34;100.00
35151;BME280;55720;51.972;4.624;2023-04-15T12:47:54;101768.66;;;14.39;100.00
35151;BME280;55720;51.972;4.624;2023-04-15T12:50:20;101780.06;;;14.28;100.00
35151;BME280;55720;51.972;4.624;2023-04-15T12:52:45;101785.69;;;14.41;100.00
35151;BME280;55720;51.972;4.624;2023-04-15T12:55:10;101788.31;;;14.08;100.00